x

Smith Island, Wa (sisw1) Weather Station

6:00pm - Sat 23rd Sep 2017 All times are PDT. -7 hours from GMT.

  • Wind
    8mph, 10mph gusts
  • Air Temp 54°f
  • Sea Pressure 1019.3mb
  • Smith Island, Wa
  • Smith Island, Wa

More Historic Weather Station data

Upgrade to MSW Pro to gain access to the past 30 days of data for over 8000 Wavebouys and Weather Stations around the globe.

Join

Comparision Forecast

View Surf forecast
   
Sat 09/23 6:00pm 8 10 mph 1019.3mb 54f
5:00pm 7 7 mph 1019.4mb 58f
4:00pm 7 7 mph 1019.3mb 58f
3:00pm 6 6 mph 1019.2mb 59f
2:00pm 3 5 mph 1019.4mb 58f
1:00pm  -  2 mph 1019.3mb 59f
12:00pm 3 3 mph 1019.4mb 59f
11:00am 3 5 mph 1019.6mb 59f
10:00am 3 6 mph 1019.3mb 57f
9:00am 5 5 mph 1018.9mb 54f
8:00am 5 5 mph 1018.6mb 53f
7:00am 8 8 mph 1017.9mb 51f
6:00am 7 7 mph 1017.5mb 52f
5:00am 8 10 mph 1017.1mb 52f
4:00am 13 14 mph 1017.2mb 52f
3:00am 16 22 mph 1017mb 53f
2:00am 20 21 mph 1017mb 54f
1:00am 15 16 mph 1017.1mb 53f
12:00am 13 14 mph 1016.8mb 53f
Fri 09/22 11:00pm 8 9 mph 1016.7mb 52f
10:00pm 6 7 mph 1016.7mb 52f
9:00pm 6 6 mph 1017mb 52f
8:00pm 5 5 mph 1016.8mb 53f
7:00pm 1 1 mph 1016.7mb 54f
6:00pm 7 7 mph 1016.7mb 54f
5:00pm 3 5 mph 1016.7mb 55f
4:00pm 2 2 mph 1016.8mb 58f
3:00pm 2 3 mph 1017.2mb 60f
2:00pm  -  1 mph 1017.4mb 60f
1:00pm 3 5 mph 1017.8mb 56f
12:00pm 5 5 mph 1018.1mb 55f
11:00am 2 3 mph 1018.1mb 54f
10:00am 6 7 mph 1018.1mb 54f
9:00am 5 6 mph 1017.9mb 53f
8:00am 6 6 mph 1017.6mb 52f
7:00am 6 7 mph 1017.6mb 51f
6:00am  -  0 mph 1017.2mb 52f
5:00am 6 6 mph 1016.9mb 52f
4:00am 6 6 mph 1016.6mb 51f
3:00am 2 3 mph 1016.3mb 51f
2:00am 6 7 mph 1016.3mb 52f
1:00am 6 7 mph 1016.2mb 52f
12:00am 7 8 mph 1016.2mb 52f
Thu 09/21 11:00pm 7 9 mph 1015.9mb 53f
10:00pm 6 7 mph 1015.7mb 53f
9:00pm 2 3 mph 1015.8mb 53f
8:00pm 5 5 mph 1015.4mb 53f
7:00pm 5 6 mph 1015.2mb 53f
6:00pm 6 6 mph 1015mb 54f
5:00pm 7 7 mph 1014.9mb 55f
4:00pm 6 7 mph 1014.8mb 56f
3:00pm 3 6 mph 1014.7mb 55f
2:00pm 5 7 mph 1014.5mb 55f
1:00pm 6 7 mph 1014.4mb 54f
12:00pm 2 3 mph 1014.4mb 54f
11:00am 3 3 mph 1014.3mb 55f
10:00am 3 5 mph 1014mb 53f
9:00am 5 6 mph 1013.6mb 52f
8:00am 3 3 mph 1013.1mb 51f
7:00am 1 2 mph 1012.8mb 51f
6:00am 7 8 mph 1011.8mb 51f
5:00am 9 9 mph 1011.7mb 51f
4:00am 5 5 mph 1011.3mb 51f
3:00am  -  0 mph 1010.8mb 51f
2:00am 8 8 mph 1010.5mb 51f
1:00am 5 6 mph 1010.3mb 52f
12:00am 9 11 mph 1009.8mb 52f
Wed 09/20 11:00pm 11 13 mph 1009.5mb 53f
10:00pm 9 10 mph 1009.3mb 51f
9:00pm 7 8 mph 1009mb 51f
8:00pm 7 8 mph 1008.8mb 51f
7:00pm 6 6 mph 1008.4mb 52f
6:00pm 7 8 mph 1007.9mb 53f
5:00pm 2 5 mph 1007.5mb 55f
4:00pm 5 7 mph 1007.3mb 54f
3:00pm 7 9 mph 1007.1mb 54f
2:00pm 9 11 mph 1006.9mb 53f
1:00pm 10 13 mph 1006.7mb 53f
12:00pm 13 16 mph 1006.1mb 53f
11:00am 9 11 mph 1005.5mb 53f
10:00am 10 11 mph 1005.2mb 51f
9:00am 7 8 mph 1004.6mb 51f
8:00am 10 11 mph 1004.4mb 51f
7:00am 6 7 mph 1004.2mb 50f
6:00am 6 6 mph 1004mb 49f
5:00am 7 7 mph 1003.7mb 50f
4:00am 5 5 mph 1003.8mb 50f
3:00am 8 8 mph 1004.3mb 51f